createdAt,value
2023-03-22T00:02:55.273Z,100163.19
2023-03-22T00:05:58.351Z,100173.44
2023-03-22T00:09:00.798Z,100166.66
2023-03-22T00:12:02.963Z,100169.03
2023-03-22T00:15:05.829Z,100164.69
2023-03-22T00:18:08.235Z,100158.19
2023-03-22T00:21:15.406Z,100168.41
2023-03-22T00:24:17.643Z,100150.88
2023-03-22T00:27:19.906Z,100162.22
2023-03-22T00:30:22.051Z,100147.94
2023-03-22T00:33:24.336Z,100158.75
2023-03-22T00:36:26.522Z,100146.03
2023-03-22T00:39:28.710Z,100147.31
2023-03-22T00:42:31.072Z,100155.72
2023-03-22T00:45:36.186Z,100147.03
2023-03-22T00:48:38.464Z,100153.56
2023-03-22T00:51:40.602Z,100149.50
2023-03-22T00:54:42.771Z,100159.50
2023-03-22T00:57:44.973Z,100153.31
2023-03-22T01:00:48.148Z,100148.91
2023-03-22T01:03:50.651Z,100166.91
2023-03-22T01:06:59.265Z,100160.88
2023-03-22T01:10:01.541Z,100166.19
2023-03-22T01:13:04.487Z,100158.19
2023-03-22T01:16:07.463Z,100152.81
2023-03-22T01:19:09.734Z,100144.53
2023-03-22T01:22:12.106Z,100142.34
2023-03-22T01:25:14.583Z,100143.59
2023-03-22T01:28:16.947Z,100140.50
2023-03-22T01:31:19.290Z,100128.94
2023-03-22T01:34:22.349Z,100135.72
2023-03-22T01:37:27.680Z,100112.25
2023-03-22T01:40:29.887Z,100126.16
2023-03-22T01:43:32.379Z,100123.94
2023-03-22T01:46:34.729Z,100131.44
2023-03-22T01:49:37.730Z,100127.06
2023-03-22T01:52:40.595Z,100139.69
2023-03-22T01:55:47.790Z,100140.19
2023-03-22T01:58:57.446Z,100141.94
2023-03-22T02:02:07.959Z,100146.97
2023-03-22T02:05:12.347Z,100156.16
2023-03-22T02:08:15.742Z,100147.44
2023-03-22T02:11:33.568Z,100145.78
2023-03-22T02:14:44.653Z,100148.72
2023-03-22T02:18:38.653Z,100146.47
2023-03-22T02:22:01.975Z,100158.91
2023-03-22T02:25:23.151Z,100158.09
2023-03-22T02:28:56.408Z,100157.72
2023-03-22T02:32:17.141Z,100161.41
2023-03-22T02:35:42.735Z,100164.91
2023-03-22T02:38:57.749Z,100145.09
2023-03-22T02:42:16.036Z,100153.50
2023-03-22T02:45:44.753Z,100138.09
2023-03-22T02:49:02.044Z,100162.91
2023-03-22T02:52:17.567Z,100170.06
2023-03-22T02:55:46.390Z,100163.47
2023-03-22T02:58:53.201Z,100177.03
2023-03-22T03:01:57.626Z,100169.16
2023-03-22T03:04:59.993Z,100163.00
2023-03-22T03:08:02.737Z,100165.19
2023-03-22T03:11:07.149Z,100169.66
2023-03-22T03:14:20.242Z,100155.75
2023-03-22T03:17:32.531Z,100159.81
2023-03-22T03:20:56.589Z,100166.41
2023-03-22T03:24:27.893Z,100162.91
2023-03-22T03:27:38.539Z,100165.59
2023-03-22T03:30:49.549Z,100157.06
2023-03-22T03:34:00.740Z,100146.91
2023-03-22T03:37:15.970Z,100163.88
2023-03-22T03:40:23.512Z,100172.50
2023-03-22T03:43:25.736Z,100175.84
2023-03-22T03:46:29.235Z,100167.91
2023-03-22T03:49:31.377Z,100170.72
2023-03-22T03:52:34.693Z,100174.53
2023-03-22T03:55:37.657Z,100170.97
2023-03-22T03:58:40.809Z,100163.16
2023-03-22T04:01:53.605Z,100176.16
2023-03-22T04:05:00.477Z,100172.09
2023-03-22T04:08:02.597Z,100170.22
2023-03-22T04:11:05.410Z,100171.84
2023-03-22T04:14:08.067Z,100180.34
2023-03-22T04:17:10.461Z,100182.28
2023-03-22T04:20:13.835Z,100182.13
2023-03-22T04:23:16.240Z,100168.84
2023-03-22T04:26:21.896Z,100161.34
2023-03-22T04:29:40.662Z,100161.47
2023-03-22T04:33:07.142Z,100154.53
2023-03-22T04:36:43.017Z,100184.97
2023-03-22T04:40:08.066Z,100185.09
2023-03-22T04:43:19.049Z,100175.69
2023-03-22T04:46:27.177Z,100182.84
2023-03-22T04:49:38.240Z,100189.13
2023-03-22T04:52:40.980Z,100198.88
2023-03-22T04:55:43.242Z,100196.34
2023-03-22T04:58:46.172Z,100196.66
2023-03-22T05:01:49.316Z,100182.44
2023-03-22T05:04:54.857Z,100192.28
2023-03-22T05:08:10.613Z,100182.75
2023-03-22T05:11:16.296Z,100189.03
2023-03-22T05:14:25.595Z,100199.59
2023-03-22T05:17:28.295Z,100181.78
2023-03-22T05:20:32.673Z,100202.03
2023-03-22T05:23:51.697Z,100210.16
2023-03-22T05:26:55.203Z,100204.69
2023-03-22T05:30:02.155Z,100208.78
2023-03-22T05:33:22.057Z,100212.03
2023-03-22T05:36:29.706Z,100220.59
2023-03-22T05:39:48.964Z,100225.56
2023-03-22T05:42:52.219Z,100222.78
2023-03-22T05:45:58.822Z,100226.75
2023-03-22T05:49:14.311Z,100242.69
2023-03-22T05:52:17.154Z,100236.72
2023-03-22T05:55:32.000Z,100235.72
2023-03-22T05:58:36.652Z,100239.84
2023-03-22T06:01:39.542Z,100246.84
2023-03-22T06:04:49.645Z,100247.13
2023-03-22T06:07:52.389Z,100236.38
2023-03-22T06:10:56.452Z,100246.66
2023-03-22T06:13:58.755Z,100246.94
2023-03-22T06:17:05.954Z,100248.59
2023-03-22T06:20:11.927Z,100258.31
2023-03-22T06:23:16.808Z,100248.59
2023-03-22T06:26:21.349Z,100236.06
2023-03-22T06:29:23.717Z,100246.97
2023-03-22T06:32:28.929Z,100253.13
2023-03-22T06:35:33.234Z,100265.22
2023-03-22T06:38:35.661Z,100274.56
2023-03-22T06:41:38.193Z,100268.69
2023-03-22T06:44:43.855Z,100258.16
2023-03-22T06:48:09.781Z,100261.78
2023-03-22T06:51:32.337Z,100245.66
2023-03-22T06:54:34.805Z,100258.38
2023-03-22T06:57:37.034Z,100247.97
2023-03-22T07:00:39.733Z,100280.97
2023-03-22T07:03:43.264Z,100274.00
2023-03-22T07:06:49.365Z,100272.75
2023-03-22T07:09:53.879Z,100266.97
2023-03-22T07:13:01.063Z,100266.94
2023-03-22T07:16:03.748Z,100268.22
2023-03-22T07:19:29.372Z,100264.94
2023-03-22T07:22:33.340Z,100266.50
2023-03-22T07:25:35.631Z,100274.88
2023-03-22T07:28:53.624Z,100276.81
2023-03-22T07:32:02.084Z,100284.78
2023-03-22T07:35:17.001Z,100295.84
2023-03-22T07:38:19.780Z,100285.38
2023-03-22T07:41:24.034Z,100287.06
2023-03-22T07:44:30.867Z,100286.53
2023-03-22T07:47:53.233Z,100279.56
2023-03-22T07:51:01.122Z,100274.69
2023-03-22T07:54:03.427Z,100279.84
2023-03-22T07:57:06.956Z,100283.34
2023-03-22T08:00:13.842Z,100275.00
2023-03-22T08:03:23.338Z,100272.59
2023-03-22T08:06:37.309Z,100272.31
2023-03-22T08:09:41.782Z,100270.16
2023-03-22T08:12:46.517Z,100268.53
2023-03-22T08:15:57.672Z,100258.81
2023-03-22T08:19:00.412Z,100263.41
2023-03-22T08:22:05.231Z,100263.66
2023-03-22T08:25:33.483Z,100262.56
2023-03-22T08:28:43.087Z,100264.72
2023-03-22T08:31:49.783Z,100260.94
2023-03-22T08:34:52.838Z,100266.06
2023-03-22T08:37:56.387Z,100279.84
2023-03-22T08:41:05.966Z,100268.75
2023-03-22T08:44:09.672Z,100277.16
2023-03-22T08:47:14.582Z,100273.69
2023-03-22T08:50:20.343Z,100280.41
2023-03-22T08:53:31.444Z,100269.59
2023-03-22T08:56:54.052Z,100276.91
2023-03-22T09:00:11.107Z,100275.00
2023-03-22T09:03:21.597Z,100276.63
2023-03-22T09:06:26.214Z,100271.78
2023-03-22T09:09:28.444Z,100269.06
2023-03-22T09:12:32.175Z,100277.44
2023-03-22T09:15:36.645Z,100282.03
2023-03-22T09:18:54.371Z,100286.91
2023-03-22T09:21:57.800Z,100275.28
2023-03-22T09:25:10.356Z,100278.25
2023-03-22T09:28:14.163Z,100279.88
2023-03-22T09:31:20.345Z,100270.41
2023-03-22T09:34:27.099Z,100269.88
2023-03-22T09:37:30.599Z,100271.50
2023-03-22T09:40:37.686Z,100258.50
2023-03-22T09:43:43.356Z,100259.59
2023-03-22T09:46:52.986Z,100260.09
2023-03-22T09:50:04.596Z,100259.59
2023-03-22T09:53:13.686Z,100249.84
2023-03-22T09:56:34.229Z,100249.28
2023-03-22T10:00:02.200Z,100253.59
2023-03-22T10:03:38.355Z,100254.16
2023-03-22T10:06:43.010Z,100246.81
2023-03-22T10:09:50.572Z,100249.78
2023-03-22T10:13:07.753Z,100254.66
2023-03-22T10:16:21.576Z,100236.53
2023-03-22T10:19:27.620Z,100245.72
2023-03-22T10:22:37.016Z,100247.06
2023-03-22T10:25:40.825Z,100239.50
2023-03-22T10:28:45.200Z,100239.28
2023-03-22T10:31:47.411Z,100242.50
2023-03-22T10:34:49.670Z,100235.53
2023-03-22T10:37:56.488Z,100244.97
2023-03-22T10:40:59.437Z,100234.75
2023-03-22T10:44:06.132Z,100245.25
2023-03-22T10:47:11.419Z,100235.00
2023-03-22T10:50:18.595Z,100245.00
2023-03-22T10:53:27.121Z,100244.19
2023-03-22T10:56:31.111Z,100237.97
2023-03-22T10:59:49.130Z,100233.38
2023-03-22T11:02:58.490Z,100237.72
2023-03-22T11:06:11.771Z,100233.41
2023-03-22T11:09:17.971Z,100227.47
2023-03-22T11:12:21.311Z,100221.81
2023-03-22T11:15:40.469Z,100225.34
2023-03-22T11:18:43.535Z,100214.75
2023-03-22T11:21:46.077Z,100218.25
2023-03-22T11:24:48.563Z,100212.06
2023-03-22T11:28:29.249Z,100210.44
2023-03-22T11:31:55.155Z,100203.44
2023-03-22T11:35:23.800Z,100199.38
2023-03-22T11:38:36.762Z,100199.38
2023-03-22T11:41:40.322Z,100194.25
2023-03-22T11:44:44.417Z,100195.59
2023-03-22T11:47:46.834Z,100199.94
2023-03-22T11:50:52.963Z,100199.38
2023-03-22T11:54:24.992Z,100188.84
2023-03-22T11:57:30.832Z,100191.00
2023-03-22T12:00:37.621Z,100194.25
2023-03-22T12:03:44.535Z,100198.03
2023-03-22T12:06:53.281Z,100187.50
2023-03-22T12:10:11.489Z,100188.56
2023-03-22T12:13:29.847Z,100186.13
2023-03-22T12:16:40.139Z,100195.03
2023-03-22T12:19:50.228Z,100183.75
2023-03-22T12:22:54.478Z,100185.31
2023-03-22T12:26:12.731Z,100185.31
2023-03-22T12:29:19.399Z,100181.25
2023-03-22T12:32:31.173Z,100183.94
2023-03-22T12:35:35.634Z,100182.03
2023-03-22T12:38:41.376Z,100180.66
2023-03-22T12:41:49.617Z,100173.84
2023-03-22T12:45:04.743Z,100179.50
2023-03-22T12:48:16.791Z,100175.47
2023-03-22T12:51:19.157Z,100172.75
2023-03-22T12:54:25.023Z,100173.28
2023-03-22T12:57:27.813Z,100174.34
2023-03-22T13:00:53.875Z,100166.25
2023-03-22T13:03:57.740Z,100161.66
2023-03-22T13:07:13.665Z,100154.91
2023-03-22T13:10:39.472Z,100154.34
2023-03-22T13:13:44.488Z,100152.16
2023-03-22T13:16:56.219Z,100146.47
2023-03-22T13:20:00.740Z,100139.13
2023-03-22T13:23:04.721Z,100133.69
2023-03-22T13:26:15.029Z,100140.13
2023-03-22T13:29:20.090Z,100131.66
2023-03-22T13:32:33.461Z,100130.78
2023-03-22T13:35:48.866Z,100126.13
2023-03-22T13:38:56.599Z,100133.94
2023-03-22T13:42:17.670Z,100118.53
2023-03-22T13:45:33.640Z,100129.53
2023-03-22T13:48:48.803Z,100122.75
2023-03-22T13:51:51.509Z,100121.13
2023-03-22T13:54:57.220Z,100113.81
2023-03-22T13:58:00.137Z,100115.41
2023-03-22T14:01:16.707Z,100112.72
2023-03-22T14:04:37.428Z,100106.22
2023-03-22T14:07:48.143Z,100102.69
2023-03-22T14:10:58.532Z,100092.16
2023-03-22T14:14:05.467Z,100095.09
2023-03-22T14:17:13.800Z,100100.75
2023-03-22T14:20:20.140Z,100085.09
